sensor_id;sensor_type;location;lat;lon;timestamp;pressure;altitude;pressure_sealevel;temperature;humidity
49723;BME280;43484;43.608;1.458;2023-05-20T00:00:44;99854.38;;;13.24;100.00
49723;BME280;43484;43.608;1.458;2023-05-20T00:03:14;99846.41;;;13.10;100.00
49723;BME280;43484;43.608;1.458;2023-05-20T00:05:41;99846.44;;;13.12;100.00
49723;BME280;43484;43.608;1.458;2023-05-20T00:08:08;99844.78;;;13.15;100.00
49723;BME280;43484;43.608;1.458;2023-05-20T00:10:36;99849.84;;;13.11;100.00
49723;BME280;43484;43.608;1.458;2023-05-20T00:13:03;99841.84;;;12.99;100.00
49723;BME280;43484;43.608;1.458;2023-05-20T00:15:32;99832.53;;;13.02;100.00
49723;BME280;43484;43.608;1.458;2023-05-20T00:18:00;99825.53;;;12.97;100.00
49723;BME280;43484;43.608;1.458;2023-05-20T00:20:27;99819.59;;;12.99;100.00
49723;BME280;43484;43.608;1.458;2023-05-20T00:22:54;99822.03;;;12.93;100.00
49723;BME280;43484;43.608;1.458;2023-05-20T00:25:20;99818.53;;;12.90;100.00
49723;BME280;43484;43.608;1.458;2023-05-20T00:27:47;99811.75;;;12.93;100.00
49723;BME280;43484;43.608;1.458;2023-05-20T00:30:14;99813.34;;;12.88;100.00
49723;BME280;43484;43.608;1.458;2023-05-20T00:32:40;99805.69;;;12.91;100.00
49723;BME280;43484;43.608;1.458;2023-05-20T00:35:07;99801.22;;;12.81;100.00
49723;BME280;43484;43.608;1.458;2023-05-20T00:37:34;99795.34;;;12.88;100.00
49723;BME280;43484;43.608;1.458;2023-05-20T00:40:01;99799.50;;;12.82;100.00
49723;BME280;43484;43.608;1.458;2023-05-20T00:42:28;99786.59;;;12.77;100.00
49723;BME280;43484;43.608;1.458;2023-05-20T00:44:55;99783.09;;;12.75;100.00
49723;BME280;43484;43.608;1.458;2023-05-20T00:47:29;99779.81;;;12.82;100.00
49723;BME280;43484;43.608;1.458;2023-05-20T00:49:59;99776.31;;;12.77;100.00
49723;BME280;43484;43.608;1.458;2023-05-20T00:52:28;99776.03;;;12.63;100.00
49723;BME280;43484;43.608;1.458;2023-05-20T00:54:57;99767.44;;;12.63;100.00
49723;BME280;43484;43.608;1.458;2023-05-20T00:57:25;99764.91;;;12.64;100.00
49723;BME280;43484;43.608;1.458;2023-05-20T00:59:52;99757.16;;;12.63;100.00
49723;BME280;43484;43.608;1.458;2023-05-20T01:02:19;99757.16;;;12.63;100.00
49723;BME280;43484;43.608;1.458;2023-05-20T01:04:46;99751.16;;;12.62;100.00
49723;BME280;43484;43.608;1.458;2023-05-20T01:07:15;99753.66;;;12.59;100.00
49723;BME280;43484;43.608;1.458;2023-05-20T01:09:42;99741.44;;;12.48;100.00
49723;BME280;43484;43.608;1.458;2023-05-20T01:12:36;99732.09;;;12.51;100.00
49723;BME280;43484;43.608;1.458;2023-05-20T01:15:11;99726.88;;;12.47;100.00
49723;BME280;43484;43.608;1.458;2023-05-20T01:17:40;99721.88;;;12.54;100.00
49723;BME280;43484;43.608;1.458;2023-05-20T01:20:11;99730.59;;;12.62;100.00
49723;BME280;43484;43.608;1.458;2023-05-20T01:22:51;99727.81;;;12.52;100.00
49723;BME280;43484;43.608;1.458;2023-05-20T01:25:19;99720.94;;;12.51;100.00
49723;BME280;43484;43.608;1.458;2023-05-20T01:27:48;99713.13;;;12.45;100.00
49723;BME280;43484;43.608;1.458;2023-05-20T01:30:15;99715.59;;;12.40;100.00
49723;BME280;43484;43.608;1.458;2023-05-20T01:32:51;99710.66;;;12.51;100.00
49723;BME280;43484;43.608;1.458;2023-05-20T01:35:19;99702.84;;;12.45;100.00
49723;BME280;43484;43.608;1.458;2023-05-20T01:37:48;99696.81;;;12.43;100.00
49723;BME280;43484;43.608;1.458;2023-05-20T01:40:17;99694.22;;;12.41;100.00
49723;BME280;43484;43.608;1.458;2023-05-20T01:42:44;99685.56;;;12.38;100.00
49723;BME280;43484;43.608;1.458;2023-05-20T01:45:12;99676.97;;;12.36;100.00
49723;BME280;43484;43.608;1.458;2023-05-20T01:47:38;99679.69;;;12.43;100.00
49723;BME280;43484;43.608;1.458;2023-05-20T01:50:07;99679.78;;;12.48;100.00
49723;BME280;43484;43.608;1.458;2023-05-20T01:52:34;99684.03;;;12.47;100.00
49723;BME280;43484;43.608;1.458;2023-05-20T01:55:00;99674.78;;;12.55;100.00
49723;BME280;43484;43.608;1.458;2023-05-20T01:57:27;99680.69;;;12.50;100.00
49723;BME280;43484;43.608;1.458;2023-05-20T01:59:54;99682.41;;;12.51;100.00
49723;BME280;43484;43.608;1.458;2023-05-20T02:02:20;99674.66;;;12.49;100.00
49723;BME280;43484;43.608;1.458;2023-05-20T02:04:49;99676.31;;;12.46;100.00
49723;BME280;43484;43.608;1.458;2023-05-20T02:07:16;99671.31;;;12.52;100.00
49723;BME280;43484;43.608;1.458;2023-05-20T02:09:46;99674.84;;;12.58;100.00
49723;BME280;43484;43.608;1.458;2023-05-20T02:12:13;99684.28;;;12.59;100.00
49723;BME280;43484;43.608;1.458;2023-05-20T02:14:43;99680.00;;;12.58;100.00
49723;BME280;43484;43.608;1.458;2023-05-20T02:17:12;99677.50;;;12.63;100.00
49723;BME280;43484;43.608;1.458;2023-05-20T02:19:42;99671.44;;;12.61;100.00
49723;BME280;43484;43.608;1.458;2023-05-20T02:22:09;99666.41;;;12.64;100.00
49723;BME280;43484;43.608;1.458;2023-05-20T02:24:35;99664.53;;;12.57;100.00
49723;BME280;43484;43.608;1.458;2023-05-20T02:27:02;99664.59;;;12.60;100.00
49723;BME280;43484;43.608;1.458;2023-05-20T02:29:30;99657.53;;;12.48;100.00
49723;BME280;43484;43.608;1.458;2023-05-20T02:31:57;99645.38;;;12.40;100.00
49723;BME280;43484;43.608;1.458;2023-05-20T02:34:23;99627.44;;;12.43;100.00
49723;BME280;43484;43.608;1.458;2023-05-20T02:36:51;99621.47;;;12.44;100.00
49723;BME280;43484;43.608;1.458;2023-05-20T02:39:18;99617.28;;;12.49;100.00
49723;BME280;43484;43.608;1.458;2023-05-20T02:41:45;99623.19;;;12.43;100.00
49723;BME280;43484;43.608;1.458;2023-05-20T02:44:11;99609.47;;;12.43;100.00
49723;BME280;43484;43.608;1.458;2023-05-20T02:46:38;99603.41;;;12.39;100.00
49723;BME280;43484;43.608;1.458;2023-05-20T02:49:05;99598.16;;;12.33;100.00
49723;BME280;43484;43.608;1.458;2023-05-20T02:51:32;99594.00;;;12.40;100.00
49723;BME280;43484;43.608;1.458;2023-05-20T02:53:59;99596.50;;;12.37;100.00
49723;BME280;43484;43.608;1.458;2023-05-20T02:56:25;99590.44;;;12.33;100.00
49723;BME280;43484;43.608;1.458;2023-05-20T02:58:52;99579.31;;;12.33;100.00
49723;BME280;43484;43.608;1.458;2023-05-20T03:01:19;99577.66;;;12.36;100.00
49723;BME280;43484;43.608;1.458;2023-05-20T03:03:45;99569.94;;;12.36;100.00
49723;BME280;43484;43.608;1.458;2023-05-20T03:06:12;99569.94;;;12.35;100.00
49723;BME280;43484;43.608;1.458;2023-05-20T03:08:38;99574.22;;;12.36;100.00
49723;BME280;43484;43.608;1.458;2023-05-20T03:11:08;99558.09;;;12.44;100.00
49723;BME280;43484;43.608;1.458;2023-05-20T03:13:34;99569.19;;;12.40;100.00
49723;BME280;43484;43.608;1.458;2023-05-20T03:16:01;99559.69;;;12.38;100.00
49723;BME280;43484;43.608;1.458;2023-05-20T03:18:28;99546.84;;;12.38;100.00
49723;BME280;43484;43.608;1.458;2023-05-20T03:20:55;99543.50;;;12.40;100.00
49723;BME280;43484;43.608;1.458;2023-05-20T03:23:21;99540.94;;;12.42;100.00
49723;BME280;43484;43.608;1.458;2023-05-20T03:25:48;99543.34;;;12.33;100.00
49723;BME280;43484;43.608;1.458;2023-05-20T03:28:15;99528.84;;;12.36;100.00
49723;BME280;43484;43.608;1.458;2023-05-20T03:30:41;99528.75;;;12.30;100.00
49723;BME280;43484;43.608;1.458;2023-05-20T03:33:08;99528.78;;;12.32;100.00
49723;BME280;43484;43.608;1.458;2023-05-20T03:35:36;99508.13;;;12.26;100.00
49723;BME280;43484;43.608;1.458;2023-05-20T03:38:03;99503.00;;;12.27;100.00
49723;BME280;43484;43.608;1.458;2023-05-20T03:40:29;99500.53;;;12.32;100.00
49723;BME280;43484;43.608;1.458;2023-05-20T03:42:56;99505.03;;;12.45;100.00
49723;BME280;43484;43.608;1.458;2023-05-20T03:45:23;99507.44;;;12.37;100.00
49723;BME280;43484;43.608;1.458;2023-05-20T03:47:49;99496.31;;;12.35;100.00
49723;BME280;43484;43.608;1.458;2023-05-20T03:50:17;99489.28;;;12.25;100.00
49723;BME280;43484;43.608;1.458;2023-05-20T03:52:44;99472.06;;;12.20;100.00
49723;BME280;43484;43.608;1.458;2023-05-20T03:55:10;99462.56;;;12.16;100.00
49723;BME280;43484;43.608;1.458;2023-05-20T03:57:37;99455.69;;;12.13;100.00
49723;BME280;43484;43.608;1.458;2023-05-20T04:00:04;99449.66;;;12.10;100.00
49723;BME280;43484;43.608;1.458;2023-05-20T04:02:37;99436.75;;;12.07;100.00
49723;BME280;43484;43.608;1.458;2023-05-20T04:05:04;99429.09;;;12.08;100.00
49723;BME280;43484;43.608;1.458;2023-05-20T04:07:34;99428.28;;;12.12;100.00
49723;BME280;43484;43.608;1.458;2023-05-20T04:10:02;99430.72;;;12.05;100.00
49723;BME280;43484;43.608;1.458;2023-05-20T04:12:29;99423.13;;;12.12;100.00
49723;BME280;43484;43.608;1.458;2023-05-20T04:14:58;99429.13;;;12.11;100.00
49723;BME280;43484;43.608;1.458;2023-05-20T04:17:28;99430.97;;;12.18;100.00
49723;BME280;43484;43.608;1.458;2023-05-20T04:19:57;99430.78;;;12.09;100.00
49723;BME280;43484;43.608;1.458;2023-05-20T04:22:27;99421.19;;;11.98;100.00
49723;BME280;43484;43.608;1.458;2023-05-20T04:24:53;99416.09;;;12.01;100.00
49723;BME280;43484;43.608;1.458;2023-05-20T04:27:21;99417.00;;;12.03;100.00
49723;BME280;43484;43.608;1.458;2023-05-20T04:29:49;99402.44;;;12.02;100.00
49723;BME280;43484;43.608;1.458;2023-05-20T04:32:17;99410.16;;;12.02;100.00
49723;BME280;43484;43.608;1.458;2023-05-20T04:34:45;99408.47;;;12.04;100.00
49723;BME280;43484;43.608;1.458;2023-05-20T04:37:12;99403.25;;;11.99;100.00
49723;BME280;43484;43.608;1.458;2023-05-20T04:39:39;99408.38;;;11.99;100.00
49723;BME280;43484;43.608;1.458;2023-05-20T04:42:05;99405.09;;;12.08;100.00
49723;BME280;43484;43.608;1.458;2023-05-20T04:44:32;99408.34;;;11.96;100.00
49723;BME280;43484;43.608;1.458;2023-05-20T04:46:59;99396.47;;;12.04;100.00
49723;BME280;43484;43.608;1.458;2023-05-20T04:49:26;99397.34;;;12.03;100.00
49723;BME280;43484;43.608;1.458;2023-05-20T04:51:55;99393.00;;;12.02;100.00
49723;BME280;43484;43.608;1.458;2023-05-20T04:54:21;99391.34;;;12.04;100.00
49723;BME280;43484;43.608;1.458;2023-05-20T04:56:48;99396.66;;;12.13;100.00
49723;BME280;43484;43.608;1.458;2023-05-20T04:59:16;99399.09;;;12.07;100.00
49723;BME280;43484;43.608;1.458;2023-05-20T05:01:43;99401.72;;;12.09;100.00
49723;BME280;43484;43.608;1.458;2023-05-20T05:04:10;99406.00;;;12.10;100.00
49723;BME280;43484;43.608;1.458;2023-05-20T05:06:37;99400.91;;;12.13;100.00
49723;BME280;43484;43.608;1.458;2023-05-20T05:09:04;99400.97;;;12.17;100.00
49723;BME280;43484;43.608;1.458;2023-05-20T05:11:30;99406.94;;;12.15;100.00
49723;BME280;43484;43.608;1.458;2023-05-20T05:13:57;99395.66;;;12.05;100.00
49723;BME280;43484;43.608;1.458;2023-05-20T05:16:24;99385.28;;;11.99;100.00
49723;BME280;43484;43.608;1.458;2023-05-20T05:18:50;99392.31;;;12.12;100.00
49723;BME280;43484;43.608;1.458;2023-05-20T05:21:17;99384.59;;;12.09;100.00
49723;BME280;43484;43.608;1.458;2023-05-20T05:23:44;99383.69;;;12.07;100.00
49723;BME280;43484;43.608;1.458;2023-05-20T05:26:11;99381.97;;;12.06;100.00
49723;BME280;43484;43.608;1.458;2023-05-20T05:28:37;99369.13;;;12.05;100.00
49723;BME280;43484;43.608;1.458;2023-05-20T05:31:04;99360.75;;;12.16;100.00
49723;BME280;43484;43.608;1.458;2023-05-20T05:33:32;99373.78;;;12.28;100.00
49723;BME280;43484;43.608;1.458;2023-05-20T05:35:58;99383.16;;;12.26;100.00
49723;BME280;43484;43.608;1.458;2023-05-20T05:38:27;99389.22;;;12.31;100.00
49723;BME280;43484;43.608;1.458;2023-05-20T05:40:53;99393.44;;;12.28;100.00
49723;BME280;43484;43.608;1.458;2023-05-20T05:43:20;99384.03;;;12.28;100.00
49723;BME280;43484;43.608;1.458;2023-05-20T05:45:46;99373.53;;;12.13;100.00
49723;BME280;43484;43.608;1.458;2023-05-20T05:48:13;99373.81;;;12.31;100.00
49723;BME280;43484;43.608;1.458;2023-05-20T05:50:43;99380.03;;;12.47;100.00
49723;BME280;43484;43.608;1.458;2023-05-20T05:53:11;99390.31;;;12.47;100.00
49723;BME280;43484;43.608;1.458;2023-05-20T05:55:38;99390.28;;;12.44;100.00
49723;BME280;43484;43.608;1.458;2023-05-20T05:58:04;99382.44;;;12.36;100.00
49723;BME280;43484;43.608;1.458;2023-05-20T06:00:31;99392.94;;;12.51;100.00
49723;BME280;43484;43.608;1.458;2023-05-20T06:02:57;99391.25;;;12.52;100.00
49723;BME280;43484;43.608;1.458;2023-05-20T06:05:24;99402.31;;;12.48;100.00
49723;BME280;43484;43.608;1.458;2023-05-20T06:07:54;99406.66;;;12.50;100.00
49723;BME280;43484;43.608;1.458;2023-05-20T06:10:21;99404.09;;;12.52;100.00
49723;BME280;43484;43.608;1.458;2023-05-20T06:12:48;99400.59;;;12.47;100.00
49723;BME280;43484;43.608;1.458;2023-05-20T06:15:15;99398.91;;;12.49;100.00
49723;BME280;43484;43.608;1.458;2023-05-20T06:17:42;99396.50;;;12.61;100.00
49723;BME280;43484;43.608;1.458;2023-05-20T06:20:09;99401.84;;;12.75;100.00
49723;BME280;43484;43.608;1.458;2023-05-20T06:22:35;99419.00;;;12.74;100.00
49723;BME280;43484;43.608;1.458;2023-05-20T06:25:02;99424.97;;;12.75;100.00
49723;BME280;43484;43.608;1.458;2023-05-20T06:27:29;99422.31;;;12.67;100.00
49723;BME280;43484;43.608;1.458;2023-05-20T06:29:55;99412.69;;;12.54;100.00
49723;BME280;43484;43.608;1.458;2023-05-20T06:32:22;99400.81;;;12.62;100.00
49723;BME280;43484;43.608;1.458;2023-05-20T06:34:49;99413.75;;;12.70;100.00
49723;BME280;43484;43.608;1.458;2023-05-20T06:37:16;99417.97;;;12.64;100.00
49723;BME280;43484;43.608;1.458;2023-05-20T06:39:43;99409.56;;;12.76;100.00
49723;BME280;43484;43.608;1.458;2023-05-20T06:42:10;99413.91;;;12.79;100.00
49723;BME280;43484;43.608;1.458;2023-05-20T06:44:36;99415.63;;;12.81;100.00
49723;BME280;43484;43.608;1.458;2023-05-20T06:47:03;99414.81;;;12.84;100.00
49723;BME280;43484;43.608;1.458;2023-05-20T06:49:30;99434.00;;;13.05;100.00
49723;BME280;43484;43.608;1.458;2023-05-20T06:51:56;99452.75;;;13.00;100.00
49723;BME280;43484;43.608;1.458;2023-05-20T06:54:24;99451.75;;;12.90;100.00
49723;BME280;43484;43.608;1.458;2023-05-20T06:56:50;99452.72;;;12.98;100.00
49723;BME280;43484;43.608;1.458;2023-05-20T06:59:17;99464.00;;;13.06;100.00
49723;BME280;43484;43.608;1.458;2023-05-20T07:01:43;99462.19;;;13.01;100.00
49723;BME280;43484;43.608;1.458;2023-05-20T07:04:10;99470.13;;;13.13;100.00
49723;BME280;43484;43.608;1.458;2023-05-20T07:06:37;99481.25;;;13.15;100.00
49723;BME280;43484;43.608;1.458;2023-05-20T07:09:04;99491.75;;;13.28;100.00
49723;BME280;43484;43.608;1.458;2023-05-20T07:11:30;99497.78;;;13.30;100.00
49723;BME280;43484;43.608;1.458;2023-05-20T07:13:57;99496.91;;;13.30;100.00
49723;BME280;43484;43.608;1.458;2023-05-20T07:16:24;99503.09;;;13.42;100.00
49723;BME280;43484;43.608;1.458;2023-05-20T07:18:51;99521.91;;;13.40;100.00
49723;BME280;43484;43.608;1.458;2023-05-20T07:21:18;99529.59;;;13.38;100.00
49723;BME280;43484;43.608;1.458;2023-05-20T07:23:44;99540.78;;;13.39;100.00
49723;BME280;43484;43.608;1.458;2023-05-20T07:26:11;99546.84;;;13.45;100.00
49723;BME280;43484;43.608;1.458;2023-05-20T07:28:38;99562.72;;;13.80;100.00
49723;BME280;43484;43.608;1.458;2023-05-20T07:31:04;99572.91;;;13.68;100.00
49723;BME280;43484;43.608;1.458;2023-05-20T07:33:31;99590.13;;;13.75;100.00
49723;BME280;43484;43.608;1.458;2023-05-20T07:35:58;99593.53;;;13.71;100.00
49723;BME280;43484;43.608;1.458;2023-05-20T07:38:24;99602.19;;;13.77;100.00
49723;BME280;43484;43.608;1.458;2023-05-20T07:40:51;99608.31;;;13.85;100.00
49723;BME280;43484;43.608;1.458;2023-05-20T07:43:18;99612.47;;;13.74;100.00
49723;BME280;43484;43.608;1.458;2023-05-20T07:45:45;99619.25;;;13.68;100.00
49723;BME280;43484;43.608;1.458;2023-05-20T07:48:12;99621.03;;;13.75;100.00
49723;BME280;43484;43.608;1.458;2023-05-20T07:50:38;99616.88;;;13.84;100.00
49723;BME280;43484;43.608;1.458;2023-05-20T07:53:05;99624.78;;;13.98;100.00
49723;BME280;43484;43.608;1.458;2023-05-20T07:55:33;99644.53;;;13.99;100.00
49723;BME280;43484;43.608;1.458;2023-05-20T07:58:00;99650.09;;;14.29;100.00
49723;BME280;43484;43.608;1.458;2023-05-20T08:00:27;99655.44;;;14.49;100.00
49723;BME280;43484;43.608;1.458;2023-05-20T08:02:54;99666.84;;;14.72;100.00
49723;BME280;43484;43.608;1.458;2023-05-20T08:05:21;99674.25;;;14.42;100.00
49723;BME280;43484;43.608;1.458;2023-05-20T08:07:48;99674.41;;;14.55;100.00
49723;BME280;43484;43.608;1.458;2023-05-20T08:10:14;99687.84;;;14.27;100.00
49723;BME280;43484;43.608;1.458;2023-05-20T08:12:41;99687.22;;;14.45;100.00
49723;BME280;43484;43.608;1.458;2023-05-20T08:15:08;99672.84;;;14.66;100.00
49723;BME280;43484;43.608;1.458;2023-05-20T08:17:35;99684.72;;;14.54;100.00
49723;BME280;43484;43.608;1.458;2023-05-20T08:20:01;99687.28;;;14.52;100.00
49723;BME280;43484;43.608;1.458;2023-05-20T08:22:28;99679.53;;;14.52;100.00
49723;BME280;43484;43.608;1.458;2023-05-20T08:24:55;99677.31;;;14.84;100.00
49723;BME280;43484;43.608;1.458;2023-05-20T08:27:22;99681.63;;;14.85;100.00
49723;BME280;43484;43.608;1.458;2023-05-20T08:29:48;99680.59;;;14.68;100.00
49723;BME280;43484;43.608;1.458;2023-05-20T08:32:15;99685.06;;;14.87;100.00
49723;BME280;43484;43.608;1.458;2023-05-20T08:34:42;99676.63;;;15.00;100.00
49723;BME280;43484;43.608;1.458;2023-05-20T08:37:08;99674.19;;;15.20;100.00
49723;BME280;43484;43.608;1.458;2023-05-20T08:39:35;99685.28;;;15.08;100.00
49723;BME280;43484;43.608;1.458;2023-05-20T08:42:02;99680.81;;;14.90;100.00
49723;BME280;43484;43.608;1.458;2023-05-20T08:44:29;99672.34;;;15.05;100.00
49723;BME280;43484;43.608;1.458;2023-05-20T08:46:56;99666.56;;;15.32;100.00
49723;BME280;43484;43.608;1.458;2023-05-20T08:49:23;99667.59;;;15.47;100.00
49723;BME280;43484;43.608;1.458;2023-05-20T08:51:50;99671.91;;;15.53;100.00
49723;BME280;43484;43.608;1.458;2023-05-20T08:54:17;99669.16;;;15.33;100.00
49723;BME280;43484;43.608;1.458;2023-05-20T08:56:46;99673.69;;;15.63;100.00
49723;BME280;43484;43.608;1.458;2023-05-20T08:59:14;99673.47;;;15.37;100.00
49723;BME280;43484;43.608;1.458;2023-05-20T09:01:41;99678.72;;;15.40;100.00
49723;BME280;43484;43.608;1.458;2023-05-20T09:04:10;99674.34;;;15.38;100.00
49723;BME280;43484;43.608;1.458;2023-05-20T09:06:45;99674.69;;;15.84;100.00
49723;BME280;43484;43.608;1.458;2023-05-20T09:09:13;99672.97;;;15.80;100.00
49723;BME280;43484;43.608;1.458;2023-05-20T09:11:40;99675.44;;;15.67;100.00
49723;BME280;43484;43.608;1.458;2023-05-20T09:14:07;99664.22;;;15.62;100.00
49723;BME280;43484;43.608;1.458;2023-05-20T09:16:34;99664.34;;;15.84;100.00
49723;BME280;43484;43.608;1.458;2023-05-20T09:19:04;99672.06;;;15.72;100.00
49723;BME280;43484;43.608;1.458;2023-05-20T09:21:33;99657.38;;;15.70;100.00
49723;BME280;43484;43.608;1.458;2023-05-20T09:24:00;99658.34;;;15.88;100.00
49723;BME280;43484;43.608;1.458;2023-05-20T09:26:28;99654.94;;;15.92;100.00
49723;BME280;43484;43.608;1.458;2023-05-20T09:28:56;99666.19;;;16.05;100.00
49723;BME280;43484;43.608;1.458;2023-05-20T09:31:27;99671.28;;;15.93;100.00
49723;BME280;43484;43.608;1.458;2023-05-20T09:33:54;99671.19;;;15.73;100.00
49723;BME280;43484;43.608;1.458;2023-05-20T09:36:22;99660.19;;;16.07;100.00
49723;BME280;43484;43.608;1.458;2023-05-20T09:38:51;99656.75;;;16.11;100.00
49723;BME280;43484;43.608;1.458;2023-05-20T09:41:21;99664.50;;;16.16;100.00
49723;BME280;43484;43.608;1.458;2023-05-20T09:43:50;99658.56;;;16.32;100.00
49723;BME280;43484;43.608;1.458;2023-05-20T09:46:18;99649.16;;;16.55;100.00
49723;BME280;43484;43.608;1.458;2023-05-20T09:48:45;99642.28;;;16.62;100.00
49723;BME280;43484;43.608;1.458;2023-05-20T09:51:12;99648.34;;;16.64;100.00
49723;BME280;43484;43.608;1.458;2023-05-20T09:53:40;99647.41;;;16.48;100.00
49723;BME280;43484;43.608;1.458;2023-05-20T09:56:06;99647.47;;;16.65;100.00
49723;BME280;43484;43.608;1.458;2023-05-20T09:58:35;99644.00;;;16.48;100.00
49723;BME280;43484;43.608;1.458;2023-05-20T10:01:02;99644.00;;;16.57;100.00
49723;BME280;43484;43.608;1.458;2023-05-20T10:03:29;99637.09;;;16.63;100.00
49723;BME280;43484;43.608;1.458;2023-05-20T10:17:04;99626.81;;;17.20;100.00
49723;BME280;43484;43.608;1.458;2023-05-20T10:19:36;99621.66;;;17.16;100.00
49723;BME280;43484;43.608;1.458;2023-05-20T10:22:07;99624.22;;;17.34;100.00
49723;BME280;43484;43.608;1.458;2023-05-20T10:24:37;99617.31;;;17.54;100.00
49723;BME280;43484;43.608;1.458;2023-05-20T10:27:10;99615.59;;;17.53;100.00
49723;BME280;43484;43.608;1.458;2023-05-20T10:29:58;99623.34;;;17.29;100.00
49723;BME280;43484;43.608;1.458;2023-05-20T10:32:34;99619.03;;;17.37;100.00
49723;BME280;43484;43.608;1.458;2023-05-20T10:35:08;99625.91;;;17.67;100.00
49723;BME280;43484;43.608;1.458;2023-05-20T10:37:43;99630.25;;;17.59;100.00
49723;BME280;43484;43.608;1.458;2023-05-20T10:40:14;99624.22;;;17.43;100.00
49723;BME280;43484;43.608;1.458;2023-05-20T10:42:41;99630.19;;;17.83;100.00
49723;BME280;43484;43.608;1.458;2023-05-20T10:45:09;99627.59;;;17.83;100.00
49723;BME280;43484;43.608;1.458;2023-05-20T10:47:36;99622.34;;;18.08;100.00
49723;BME280;43484;43.608;1.458;2023-05-20T10:50:24;99624.91;;;18.10;100.00
49723;BME280;43484;43.608;1.458;2023-05-20T10:52:52;99614.50;;;18.23;100.00
49723;BME280;43484;43.608;1.458;2023-05-20T10:55:21;99617.16;;;18.08;100.00
49723;BME280;43484;43.608;1.458;2023-05-20T10:57:47;99615.28;;;18.45;100.00
49723;BME280;43484;43.608;1.458;2023-05-20T11:00:14;99609.94;;;18.66;100.00
49723;BME280;43484;43.608;1.458;2023-05-20T11:02:41;99614.25;;;18.70;100.00
49723;BME280;43484;43.608;1.458;2023-05-20T11:05:10;99616.88;;;18.62;100.00
49723;BME280;43484;43.608;1.458;2023-05-20T11:07:38;99611.81;;;18.32;100.00
49723;BME280;43484;43.608;1.458;2023-05-20T11:10:07;99606.63;;;18.34;100.00
49723;BME280;43484;43.608;1.458;2023-05-20T11:12:35;99611.72;;;18.58;100.00
49723;BME280;43484;43.608;1.458;2023-05-20T11:15:02;99600.13;;;19.07;100.00
49723;BME280;43484;43.608;1.458;2023-05-20T11:17:29;99606.16;;;19.08;100.00
49723;BME280;43484;43.608;1.458;2023-05-20T11:19:55;99602.22;;;18.57;100.00
49723;BME280;43484;43.608;1.458;2023-05-20T11:22:26;99595.84;;;18.99;100.00
49723;BME280;43484;43.608;1.458;2023-05-20T11:24:52;99601.16;;;18.84;100.00
49723;BME280;43484;43.608;1.458;2023-05-20T11:27:19;99599.56;;;18.66;100.00
49723;BME280;43484;43.608;1.458;2023-05-20T11:29:48;99592.41;;;18.98;100.00
49723;BME280;43484;43.608;1.458;2023-05-20T11:32:18;99586.38;;;18.95;100.00
49723;BME280;43484;43.608;1.458;2023-05-20T11:34:50;99594.84;;;19.13;100.00
49723;BME280;43484;43.608;1.458;2023-05-20T11:37:17;99585.28;;;19.20;100.00
49723;BME280;43484;43.608;1.458;2023-05-20T11:39:45;99588.75;;;19.19;100.00
49723;BME280;43484;43.608;1.458;2023-05-20T11:42:14;99581.50;;;19.55;100.00
49723;BME280;43484;43.608;1.458;2023-05-20T11:44:44;99576.47;;;19.36;100.00
49723;BME280;43484;43.608;1.458;2023-05-20T11:47:11;99578.28;;;19.32;100.00
49723;BME280;43484;43.608;1.458;2023-05-20T11:49:39;99575.81;;;19.11;100.00
49723;BME280;43484;43.608;1.458;2023-05-20T11:52:08;99579.88;;;19.41;100.00
49723;BME280;43484;43.608;1.458;2023-05-20T11:54:35;99570.31;;;19.49;100.00
49723;BME280;43484;43.608;1.458;2023-05-20T11:57:05;99576.22;;;19.61;100.00
49723;BME280;43484;43.608;1.458;2023-05-20T11:59:32;99570.38;;;19.40;100.00
49723;BME280;43484;43.608;1.458;2023-05-20T12:01:59;99571.19;;;19.45;100.00
49723;BME280;43484;43.608;1.458;2023-05-20T12:04:26;99558.66;;;19.80;100.00
49723;BME280;43484;43.608;1.458;2023-05-20T12:06:53;99562.34;;;19.64;100.00
49723;BME280;43484;43.608;1.458;2023-05-20T12:09:21;99568.06;;;19.91;100.00
49723;BME280;43484;43.608;1.458;2023-05-20T12:11:47;99560.81;;;20.16;100.00
49723;BME280;43484;43.608;1.458;2023-05-20T12:14:14;99558.91;;;19.62;100.00
49723;BME280;43484;43.608;1.458;2023-05-20T12:16:41;99555.94;;;19.90;100.00
49723;BME280;43484;43.608;1.458;2023-05-20T12:19:08;99560.97;;;20.04;100.00
49723;BME280;43484;43.608;1.458;2023-05-20T12:21:35;99552.59;;;19.82;100.00
49723;BME280;43484;43.608;1.458;2023-05-20T12:24:01;99541.78;;;20.16;100.00
49723;BME280;43484;43.608;1.458;2023-05-20T12:26:30;99544.47;;;20.07;100.00
49723;BME280;43484;43.608;1.458;2023-05-20T12:28:57;99541.72;;;20.19;100.00
49723;BME280;43484;43.608;1.458;2023-05-20T12:31:24;99535.38;;;20.36;100.00
49723;BME280;43484;43.608;1.458;2023-05-20T12:33:51;99552.63;;;19.78;100.00
49723;BME280;43484;43.608;1.458;2023-05-20T12:36:17;99540.78;;;19.53;100.00
49723;BME280;43484;43.608;1.458;2023-05-20T12:38:45;99537.63;;;19.98;100.00
49723;BME280;43484;43.608;1.458;2023-05-20T12:41:12;99541.34;;;20.46;100.00
49723;BME280;43484;43.608;1.458;2023-05-20T12:43:39;99535.31;;;20.42;100.00
49723;BME280;43484;43.608;1.458;2023-05-20T12:46:06;99539.47;;;19.90;100.00
49723;BME280;43484;43.608;1.458;2023-05-20T12:48:33;99534.75;;;20.22;100.00
49723;BME280;43484;43.608;1.458;2023-05-20T12:50:59;99539.38;;;19.96;100.00
49723;BME280;43484;43.608;1.458;2023-05-20T12:53:26;99535.91;;;19.98;100.00
49723;BME280;43484;43.608;1.458;2023-05-20T12:55:53;99539.06;;;20.22;100.00
49723;BME280;43484;43.608;1.458;2023-05-20T12:58:20;99538.75;;;20.44;100.00
49723;BME280;43484;43.608;1.458;2023-05-20T13:00:46;99541.59;;;20.26;100.00
49723;BME280;43484;43.608;1.458;2023-05-20T13:03:13;99543.00;;;19.84;100.00